sensor_id;sensor_type;location;lat;lon;timestamp;P1;durP1;ratioP1;P2;durP2;ratioP2
55537;SDS011;41383;51.418;7.286;2022-12-07T00:01:23;33.08;;;18.45;;
55537;SDS011;41383;51.418;7.286;2022-12-07T00:03:51;30.52;;;18.80;;
55537;SDS011;41383;51.418;7.286;2022-12-07T00:06:17;31.42;;;19.02;;
55537;SDS011;41383;51.418;7.286;2022-12-07T00:08:44;33.40;;;18.50;;
55537;SDS011;41383;51.418;7.286;2022-12-07T00:11:11;32.28;;;19.38;;
55537;SDS011;41383;51.418;7.286;2022-12-07T00:13:39;25.98;;;15.70;;
55537;SDS011;41383;51.418;7.286;2022-12-07T00:16:14;30.58;;;18.90;;
55537;SDS011;41383;51.418;7.286;2022-12-07T00:18:41;28.00;;;17.25;;
55537;SDS011;41383;51.418;7.286;2022-12-07T00:21:11;28.25;;;18.42;;
55537;SDS011;41383;51.418;7.286;2022-12-07T00:23:38;29.48;;;19.13;;
55537;SDS011;41383;51.418;7.286;2022-12-07T00:26:05;30.85;;;18.90;;
55537;SDS011;41383;51.418;7.286;2022-12-07T00:28:36;28.55;;;16.58;;
55537;SDS011;41383;51.418;7.286;2022-12-07T00:31:06;24.48;;;16.05;;
55537;SDS011;41383;51.418;7.286;2022-12-07T00:33:35;25.10;;;18.23;;
55537;SDS011;41383;51.418;7.286;2022-12-07T00:36:01;28.45;;;16.48;;
55537;SDS011;41383;51.418;7.286;2022-12-07T00:38:29;30.45;;;18.73;;
55537;SDS011;41383;51.418;7.286;2022-12-07T00:40:56;28.85;;;16.48;;
55537;SDS011;41383;51.418;7.286;2022-12-07T00:43:23;34.75;;;17.17;;
55537;SDS011;41383;51.418;7.286;2022-12-07T00:45:48;28.80;;;18.38;;
55537;SDS011;41383;51.418;7.286;2022-12-07T00:48:13;26.30;;;15.93;;
55537;SDS011;41383;51.418;7.286;2022-12-07T00:50:38;28.20;;;19.37;;
55537;SDS011;41383;51.418;7.286;2022-12-07T00:53:04;29.77;;;17.43;;
55537;SDS011;41383;51.418;7.286;2022-12-07T00:55:32;32.73;;;16.63;;
55537;SDS011;41383;51.418;7.286;2022-12-07T00:57:58;27.73;;;19.05;;
55537;SDS011;41383;51.418;7.286;2022-12-07T01:00:23;24.88;;;17.63;;
55537;SDS011;41383;51.418;7.286;2022-12-07T01:02:49;26.75;;;16.88;;
55537;SDS011;41383;51.418;7.286;2022-12-07T01:05:14;30.88;;;17.20;;
55537;SDS011;41383;51.418;7.286;2022-12-07T01:07:39;25.97;;;18.97;;
55537;SDS011;41383;51.418;7.286;2022-12-07T01:10:05;31.47;;;17.40;;
55537;SDS011;41383;51.418;7.286;2022-12-07T01:12:30;31.30;;;17.77;;
55537;SDS011;41383;51.418;7.286;2022-12-07T01:14:56;28.53;;;16.87;;
55537;SDS011;41383;51.418;7.286;2022-12-07T01:17:21;34.53;;;18.50;;
55537;SDS011;41383;51.418;7.286;2022-12-07T01:19:46;29.70;;;17.13;;
55537;SDS011;41383;51.418;7.286;2022-12-07T01:22:11;28.98;;;20.38;;
55537;SDS011;41383;51.418;7.286;2022-12-07T01:24:37;33.78;;;21.42;;
55537;SDS011;41383;51.418;7.286;2022-12-07T01:27:02;38.70;;;21.00;;
55537;SDS011;41383;51.418;7.286;2022-12-07T01:29:27;35.65;;;19.65;;
55537;SDS011;41383;51.418;7.286;2022-12-07T01:31:52;36.35;;;22.25;;
55537;SDS011;41383;51.418;7.286;2022-12-07T01:34:18;33.70;;;17.92;;
55537;SDS011;41383;51.418;7.286;2022-12-07T01:36:43;37.90;;;21.47;;
55537;SDS011;41383;51.418;7.286;2022-12-07T01:39:08;41.17;;;21.77;;
55537;SDS011;41383;51.418;7.286;2022-12-07T01:41:36;36.47;;;23.05;;
55537;SDS011;41383;51.418;7.286;2022-12-07T01:44:18;38.05;;;22.63;;
55537;SDS011;41383;51.418;7.286;2022-12-07T01:46:45;36.00;;;22.15;;
55537;SDS011;41383;51.418;7.286;2022-12-07T01:54:43;36.92;;;21.85;;
55537;SDS011;41383;51.418;7.286;2022-12-07T01:57:10;34.13;;;21.63;;
55537;SDS011;41383;51.418;7.286;2022-12-07T01:59:38;37.95;;;21.55;;
55537;SDS011;41383;51.418;7.286;2022-12-07T02:02:04;35.33;;;23.77;;
55537;SDS011;41383;51.418;7.286;2022-12-07T02:04:35;37.63;;;22.65;;
55537;SDS011;41383;51.418;7.286;2022-12-07T02:07:01;32.88;;;20.10;;
55537;SDS011;41383;51.418;7.286;2022-12-07T02:09:28;41.47;;;23.13;;
55537;SDS011;41383;51.418;7.286;2022-12-07T02:11:53;35.33;;;22.77;;
55537;SDS011;41383;51.418;7.286;2022-12-07T02:14:20;34.17;;;20.27;;
55537;SDS011;41383;51.418;7.286;2022-12-07T02:30:12;41.80;;;24.95;;
55537;SDS011;41383;51.418;7.286;2022-12-07T02:35:24;39.88;;;27.15;;
55537;SDS011;41383;51.418;7.286;2022-12-07T02:38:04;33.72;;;22.63;;
55537;SDS011;41383;51.418;7.286;2022-12-07T02:43:47;40.25;;;24.65;;
55537;SDS011;41383;51.418;7.286;2022-12-07T02:46:18;37.17;;;21.60;;
55537;SDS011;41383;51.418;7.286;2022-12-07T02:48:48;33.47;;;20.27;;
55537;SDS011;41383;51.418;7.286;2022-12-07T02:51:16;35.22;;;22.30;;
55537;SDS011;41383;51.418;7.286;2022-12-07T02:53:43;41.22;;;24.27;;
55537;SDS011;41383;51.418;7.286;2022-12-07T03:10:08;44.55;;;25.42;;
55537;SDS011;41383;51.418;7.286;2022-12-07T03:15:17;38.35;;;23.88;;
55537;SDS011;41383;51.418;7.286;2022-12-07T03:17:46;39.42;;;23.60;;
55537;SDS011;41383;51.418;7.286;2022-12-07T03:20:16;37.30;;;22.15;;
55537;SDS011;41383;51.418;7.286;2022-12-07T03:22:45;39.40;;;22.10;;
55537;SDS011;41383;51.418;7.286;2022-12-07T03:25:13;38.30;;;21.15;;
55537;SDS011;41383;51.418;7.286;2022-12-07T03:27:45;45.67;;;24.50;;
55537;SDS011;41383;51.418;7.286;2022-12-07T03:30:18;40.60;;;23.98;;
55537;SDS011;41383;51.418;7.286;2022-12-07T03:32:48;36.50;;;22.90;;
55537;SDS011;41383;51.418;7.286;2022-12-07T03:35:25;42.08;;;23.13;;
55537;SDS011;41383;51.418;7.286;2022-12-07T03:40:50;40.00;;;22.60;;
55537;SDS011;41383;51.418;7.286;2022-12-07T03:46:00;36.33;;;21.43;;
55537;SDS011;41383;51.418;7.286;2022-12-07T03:48:35;33.90;;;21.73;;
55537;SDS011;41383;51.418;7.286;2022-12-07T03:51:13;34.13;;;19.63;;
55537;SDS011;41383;51.418;7.286;2022-12-07T03:53:48;31.67;;;19.50;;
55537;SDS011;41383;51.418;7.286;2022-12-07T03:56:19;32.17;;;21.15;;
55537;SDS011;41383;51.418;7.286;2022-12-07T03:58:46;39.92;;;21.83;;
55537;SDS011;41383;51.418;7.286;2022-12-07T04:01:12;35.28;;;21.95;;
55537;SDS011;41383;51.418;7.286;2022-12-07T04:03:37;35.43;;;19.77;;
55537;SDS011;41383;51.418;7.286;2022-12-07T04:06:02;36.95;;;22.02;;
55537;SDS011;41383;51.418;7.286;2022-12-07T04:08:28;36.20;;;20.40;;
55537;SDS011;41383;51.418;7.286;2022-12-07T04:10:53;36.45;;;18.52;;
55537;SDS011;41383;51.418;7.286;2022-12-07T04:13:19;33.45;;;19.35;;
55537;SDS011;41383;51.418;7.286;2022-12-07T04:15:44;59.83;;;25.73;;
55537;SDS011;41383;51.418;7.286;2022-12-07T04:18:09;38.37;;;22.37;;
55537;SDS011;41383;51.418;7.286;2022-12-07T04:20:34;34.35;;;19.50;;
55537;SDS011;41383;51.418;7.286;2022-12-07T04:23:00;32.37;;;19.73;;
55537;SDS011;41383;51.418;7.286;2022-12-07T04:25:25;35.77;;;20.10;;
55537;SDS011;41383;51.418;7.286;2022-12-07T04:27:50;32.23;;;17.90;;
55537;SDS011;41383;51.418;7.286;2022-12-07T04:30:16;33.90;;;21.30;;
55537;SDS011;41383;51.418;7.286;2022-12-07T04:32:41;30.52;;;19.40;;
55537;SDS011;41383;51.418;7.286;2022-12-07T04:35:06;40.53;;;22.23;;
55537;SDS011;41383;51.418;7.286;2022-12-07T04:37:32;38.83;;;21.55;;
55537;SDS011;41383;51.418;7.286;2022-12-07T04:39:58;39.25;;;20.55;;
55537;SDS011;41383;51.418;7.286;2022-12-07T04:42:23;35.97;;;20.33;;
55537;SDS011;41383;51.418;7.286;2022-12-07T04:44:48;40.80;;;20.23;;
55537;SDS011;41383;51.418;7.286;2022-12-07T04:47:13;39.70;;;24.57;;
55537;SDS011;41383;51.418;7.286;2022-12-07T04:49:39;37.70;;;22.47;;
55537;SDS011;41383;51.418;7.286;2022-12-07T04:52:04;40.00;;;21.53;;
55537;SDS011;41383;51.418;7.286;2022-12-07T04:54:29;38.03;;;20.45;;
55537;SDS011;41383;51.418;7.286;2022-12-07T04:56:55;32.85;;;17.60;;
55537;SDS011;41383;51.418;7.286;2022-12-07T04:59:20;32.78;;;18.02;;
55537;SDS011;41383;51.418;7.286;2022-12-07T05:01:45;34.20;;;20.70;;
55537;SDS011;41383;51.418;7.286;2022-12-07T05:04:11;38.42;;;22.08;;
55537;SDS011;41383;51.418;7.286;2022-12-07T05:06:36;34.83;;;22.05;;
55537;SDS011;41383;51.418;7.286;2022-12-07T05:09:01;34.75;;;20.02;;
55537;SDS011;41383;51.418;7.286;2022-12-07T05:11:27;44.08;;;21.00;;
55537;SDS011;41383;51.418;7.286;2022-12-07T05:14:09;35.13;;;19.45;;
55537;SDS011;41383;51.418;7.286;2022-12-07T05:16:36;37.30;;;18.30;;
55537;SDS011;41383;51.418;7.286;2022-12-07T05:19:02;36.00;;;21.85;;
55537;SDS011;41383;51.418;7.286;2022-12-07T05:21:28;35.50;;;22.67;;
55537;SDS011;41383;51.418;7.286;2022-12-07T05:23:53;33.22;;;20.13;;
55537;SDS011;41383;51.418;7.286;2022-12-07T05:26:19;38.97;;;20.17;;
55537;SDS011;41383;51.418;7.286;2022-12-07T05:28:44;50.72;;;19.77;;
55537;SDS011;41383;51.418;7.286;2022-12-07T05:31:09;37.42;;;17.25;;
55537;SDS011;41383;51.418;7.286;2022-12-07T05:33:35;36.13;;;21.17;;
55537;SDS011;41383;51.418;7.286;2022-12-07T05:36:00;34.20;;;18.38;;
55537;SDS011;41383;51.418;7.286;2022-12-07T05:38:30;32.13;;;16.90;;
55537;SDS011;41383;51.418;7.286;2022-12-07T05:40:59;37.58;;;17.85;;
55537;SDS011;41383;51.418;7.286;2022-12-07T05:43:26;30.75;;;17.58;;
55537;SDS011;41383;51.418;7.286;2022-12-07T05:45:51;31.17;;;17.33;;
55537;SDS011;41383;51.418;7.286;2022-12-07T05:48:16;30.70;;;16.98;;
55537;SDS011;41383;51.418;7.286;2022-12-07T05:50:42;33.27;;;17.20;;
55537;SDS011;41383;51.418;7.286;2022-12-07T05:53:07;31.63;;;18.13;;
55537;SDS011;41383;51.418;7.286;2022-12-07T05:55:32;31.07;;;17.23;;
55537;SDS011;41383;51.418;7.286;2022-12-07T05:57:57;43.53;;;18.43;;
55537;SDS011;41383;51.418;7.286;2022-12-07T06:00:41;31.67;;;16.77;;
55537;SDS011;41383;51.418;7.286;2022-12-07T06:03:06;35.40;;;18.87;;
55537;SDS011;41383;51.418;7.286;2022-12-07T06:05:31;40.03;;;18.80;;
55537;SDS011;41383;51.418;7.286;2022-12-07T06:07:57;37.65;;;20.05;;
55537;SDS011;41383;51.418;7.286;2022-12-07T06:10:22;35.33;;;18.50;;
55537;SDS011;41383;51.418;7.286;2022-12-07T06:12:47;28.95;;;18.45;;
55537;SDS011;41383;51.418;7.286;2022-12-07T06:15:12;27.70;;;18.37;;
55537;SDS011;41383;51.418;7.286;2022-12-07T06:17:38;32.63;;;18.60;;
55537;SDS011;41383;51.418;7.286;2022-12-07T06:20:04;33.60;;;17.80;;
55537;SDS011;41383;51.418;7.286;2022-12-07T06:22:30;38.28;;;19.65;;
55537;SDS011;41383;51.418;7.286;2022-12-07T06:24:55;32.88;;;19.45;;
55537;SDS011;41383;51.418;7.286;2022-12-07T06:27:20;28.52;;;18.13;;
55537;SDS011;41383;51.418;7.286;2022-12-07T06:29:45;30.30;;;19.10;;
55537;SDS011;41383;51.418;7.286;2022-12-07T06:32:11;33.50;;;16.95;;
55537;SDS011;41383;51.418;7.286;2022-12-07T06:34:37;31.20;;;18.92;;
55537;SDS011;41383;51.418;7.286;2022-12-07T06:37:02;31.88;;;18.73;;
55537;SDS011;41383;51.418;7.286;2022-12-07T06:39:28;31.08;;;16.23;;
55537;SDS011;41383;51.418;7.286;2022-12-07T06:41:54;30.63;;;16.92;;
55537;SDS011;41383;51.418;7.286;2022-12-07T06:44:20;30.52;;;17.15;;
55537;SDS011;41383;51.418;7.286;2022-12-07T06:46:46;26.35;;;16.55;;
55537;SDS011;41383;51.418;7.286;2022-12-07T06:49:12;35.85;;;18.55;;
55537;SDS011;41383;51.418;7.286;2022-12-07T06:51:37;27.17;;;14.38;;
55537;SDS011;41383;51.418;7.286;2022-12-07T06:54:06;27.67;;;16.90;;
55537;SDS011;41383;51.418;7.286;2022-12-07T06:56:32;28.52;;;15.07;;
55537;SDS011;41383;51.418;7.286;2022-12-07T06:58:57;26.13;;;15.53;;
55537;SDS011;41383;51.418;7.286;2022-12-07T07:01:22;25.33;;;15.88;;
55537;SDS011;41383;51.418;7.286;2022-12-07T07:03:48;25.40;;;15.33;;
55537;SDS011;41383;51.418;7.286;2022-12-07T07:06:13;28.60;;;14.80;;
55537;SDS011;41383;51.418;7.286;2022-12-07T07:08:39;23.60;;;14.43;;
55537;SDS011;41383;51.418;7.286;2022-12-07T07:11:05;25.30;;;14.10;;
55537;SDS011;41383;51.418;7.286;2022-12-07T07:13:31;28.77;;;15.45;;
55537;SDS011;41383;51.418;7.286;2022-12-07T07:15:57;24.20;;;12.85;;
55537;SDS011;41383;51.418;7.286;2022-12-07T07:18:22;18.30;;;12.00;;
55537;SDS011;41383;51.418;7.286;2022-12-07T07:20:48;19.83;;;12.48;;
55537;SDS011;41383;51.418;7.286;2022-12-07T07:23:15;22.27;;;13.18;;
55537;SDS011;41383;51.418;7.286;2022-12-07T07:25:40;20.73;;;13.03;;
55537;SDS011;41383;51.418;7.286;2022-12-07T07:28:05;22.23;;;13.00;;
55537;SDS011;41383;51.418;7.286;2022-12-07T07:30:31;20.95;;;13.95;;
55537;SDS011;41383;51.418;7.286;2022-12-07T07:32:57;19.65;;;12.00;;
55537;SDS011;41383;51.418;7.286;2022-12-07T07:35:23;27.77;;;13.93;;
55537;SDS011;41383;51.418;7.286;2022-12-07T07:37:49;22.50;;;14.00;;
55537;SDS011;41383;51.418;7.286;2022-12-07T07:40:14;24.13;;;11.83;;
55537;SDS011;41383;51.418;7.286;2022-12-07T07:42:39;19.37;;;10.70;;
55537;SDS011;41383;51.418;7.286;2022-12-07T07:45:04;20.08;;;13.07;;
55537;SDS011;41383;51.418;7.286;2022-12-07T07:47:31;22.25;;;12.73;;
55537;SDS011;41383;51.418;7.286;2022-12-07T07:49:57;23.48;;;13.02;;
55537;SDS011;41383;51.418;7.286;2022-12-07T07:52:22;24.73;;;11.93;;
55537;SDS011;41383;51.418;7.286;2022-12-07T07:54:47;22.98;;;12.50;;
55537;SDS011;41383;51.418;7.286;2022-12-07T07:57:13;17.80;;;10.47;;
55537;SDS011;41383;51.418;7.286;2022-12-07T07:59:38;21.73;;;13.00;;
55537;SDS011;41383;51.418;7.286;2022-12-07T08:02:03;23.03;;;12.30;;
55537;SDS011;41383;51.418;7.286;2022-12-07T08:04:28;20.27;;;10.93;;
55537;SDS011;41383;51.418;7.286;2022-12-07T08:06:54;18.50;;;11.17;;
55537;SDS011;41383;51.418;7.286;2022-12-07T08:09:19;17.40;;;10.33;;
55537;SDS011;41383;51.418;7.286;2022-12-07T08:11:44;21.10;;;10.75;;
55537;SDS011;41383;51.418;7.286;2022-12-07T08:14:10;18.42;;;10.65;;
55537;SDS011;41383;51.418;7.286;2022-12-07T08:16:36;20.45;;;10.38;;
55537;SDS011;41383;51.418;7.286;2022-12-07T08:19:04;18.45;;;9.35;;
55537;SDS011;41383;51.418;7.286;2022-12-07T08:21:29;18.77;;;10.07;;
55537;SDS011;41383;51.418;7.286;2022-12-07T08:23:54;20.48;;;9.30;;
55537;SDS011;41383;51.418;7.286;2022-12-07T08:26:20;21.83;;;12.65;;
55537;SDS011;41383;51.418;7.286;2022-12-07T08:28:45;17.97;;;9.43;;
55537;SDS011;41383;51.418;7.286;2022-12-07T08:31:12;19.65;;;9.35;;
55537;SDS011;41383;51.418;7.286;2022-12-07T08:33:39;20.42;;;10.32;;
55537;SDS011;41383;51.418;7.286;2022-12-07T08:36:09;16.98;;;10.80;;
55537;SDS011;41383;51.418;7.286;2022-12-07T08:38:37;20.92;;;11.40;;
55537;SDS011;41383;51.418;7.286;2022-12-07T08:41:03;28.75;;;12.77;;
55537;SDS011;41383;51.418;7.286;2022-12-07T08:43:28;18.92;;;10.95;;
55537;SDS011;41383;51.418;7.286;2022-12-07T08:46:03;21.88;;;12.10;;
55537;SDS011;41383;51.418;7.286;2022-12-07T08:48:35;18.20;;;9.75;;
55537;SDS011;41383;51.418;7.286;2022-12-07T08:51:04;23.77;;;11.23;;
55537;SDS011;41383;51.418;7.286;2022-12-07T08:53:29;18.33;;;10.48;;
55537;SDS011;41383;51.418;7.286;2022-12-07T08:55:56;19.58;;;10.88;;
55537;SDS011;41383;51.418;7.286;2022-12-07T08:58:22;20.52;;;9.45;;
55537;SDS011;41383;51.418;7.286;2022-12-07T09:00:48;19.75;;;11.68;;
55537;SDS011;41383;51.418;7.286;2022-12-07T09:03:13;18.97;;;11.90;;
55537;SDS011;41383;51.418;7.286;2022-12-07T09:05:38;20.98;;;10.90;;
55537;SDS011;41383;51.418;7.286;2022-12-07T09:08:03;24.60;;;11.52;;
55537;SDS011;41383;51.418;7.286;2022-12-07T09:10:29;16.38;;;9.48;;
55537;SDS011;41383;51.418;7.286;2022-12-07T09:12:55;28.00;;;9.65;;
55537;SDS011;41383;51.418;7.286;2022-12-07T09:15:20;18.48;;;9.18;;
55537;SDS011;41383;51.418;7.286;2022-12-07T09:17:46;22.25;;;10.90;;
55537;SDS011;41383;51.418;7.286;2022-12-07T09:20:11;20.45;;;8.93;;
55537;SDS011;41383;51.418;7.286;2022-12-07T09:22:37;17.73;;;8.13;;
55537;SDS011;41383;51.418;7.286;2022-12-07T09:25:03;18.98;;;9.98;;
55537;SDS011;41383;51.418;7.286;2022-12-07T09:27:29;18.92;;;8.70;;
55537;SDS011;41383;51.418;7.286;2022-12-07T09:29:54;16.98;;;8.30;;
55537;SDS011;41383;51.418;7.286;2022-12-07T09:32:20;16.60;;;7.93;;
55537;SDS011;41383;51.418;7.286;2022-12-07T09:34:46;19.58;;;10.05;;
55537;SDS011;41383;51.418;7.286;2022-12-07T09:37:11;12.23;;;7.53;;
55537;SDS011;41383;51.418;7.286;2022-12-07T09:39:40;23.60;;;11.03;;
55537;SDS011;41383;51.418;7.286;2022-12-07T09:42:05;22.02;;;11.18;;
55537;SDS011;41383;51.418;7.286;2022-12-07T09:44:32;34.75;;;12.25;;
55537;SDS011;41383;51.418;7.286;2022-12-07T09:46:58;21.23;;;11.07;;
55537;SDS011;41383;51.418;7.286;2022-12-07T09:49:24;20.58;;;12.30;;
55537;SDS011;41383;51.418;7.286;2022-12-07T09:54:34;19.50;;;12.95;;
55537;SDS011;41383;51.418;7.286;2022-12-07T09:57:02;22.98;;;11.77;;
55537;SDS011;41383;51.418;7.286;2022-12-07T09:59:28;21.58;;;11.38;;
55537;SDS011;41383;51.418;7.286;2022-12-07T10:01:54;22.48;;;11.65;;
55537;SDS011;41383;51.418;7.286;2022-12-07T10:04:24;25.75;;;12.52;;
55537;SDS011;41383;51.418;7.286;2022-12-07T10:06:50;23.63;;;13.48;;
55537;SDS011;41383;51.418;7.286;2022-12-07T10:09:17;21.20;;;12.45;;
55537;SDS011;41383;51.418;7.286;2022-12-07T10:14:37;23.85;;;11.73;;
55537;SDS011;41383;51.418;7.286;2022-12-07T10:20:14;21.42;;;12.18;;
55537;SDS011;41383;51.418;7.286;2022-12-07T10:23:02;18.98;;;11.73;;
55537;SDS011;41383;51.418;7.286;2022-12-07T10:25:33;19.80;;;11.43;;
55537;SDS011;41383;51.418;7.286;2022-12-07T10:28:11;19.90;;;10.75;;
55537;SDS011;41383;51.418;7.286;2022-12-07T10:33:48;22.10;;;10.85;;
55537;SDS011;41383;51.418;7.286;2022-12-07T10:36:20;21.88;;;10.35;;
55537;SDS011;41383;51.418;7.286;2022-12-07T10:38:50;17.52;;;9.10;;
55537;SDS011;41383;51.418;7.286;2022-12-07T10:41:23;24.45;;;9.98;;
55537;SDS011;41383;51.418;7.286;2022-12-07T10:43:50;20.50;;;11.10;;
55537;SDS011;41383;51.418;7.286;2022-12-07T10:49:17;17.90;;;9.57;;
55537;SDS011;41383;51.418;7.286;2022-12-07T10:54:48;16.10;;;8.40;;
55537;SDS011;41383;51.418;7.286;2022-12-07T11:00:51;17.15;;;9.02;;
55537;SDS011;41383;51.418;7.286;2022-12-07T11:03:45;14.60;;;7.85;;
55537;SDS011;41383;51.418;7.286;2022-12-07T11:06:31;20.48;;;7.40;;
55537;SDS011;41383;51.418;7.286;2022-12-07T11:23:43;14.68;;;6.40;;
55537;SDS011;41383;51.418;7.286;2022-12-07T11:26:06;10.75;;;5.30;;
55537;SDS011;41383;51.418;7.286;2022-12-07T11:31:25;14.45;;;7.43;;
55537;SDS011;41383;51.418;7.286;2022-12-07T11:34:11;16.48;;;6.78;;
55537;SDS011;41383;51.418;7.286;2022-12-07T11:36:44;11.95;;;6.32;;
55537;SDS011;41383;51.418;7.286;2022-12-07T11:39:21;12.95;;;5.35;;
55537;SDS011;41383;51.418;7.286;2022-12-07T11:42:24;10.23;;;5.40;;
55537;SDS011;41383;51.418;7.286;2022-12-07T11:55:40;17.37;;;7.30;;
55537;SDS011;41383;51.418;7.286;2022-12-07T11:58:19;18.17;;;7.32;;
55537;SDS011;41383;51.418;7.286;2022-12-07T12:03:51;17.02;;;7.25;;
55537;SDS011;41383;51.418;7.286;2022-12-07T12:06:21;14.93;;;6.82;;
55537;SDS011;41383;51.418;7.286;2022-12-07T12:08:50;14.10;;;7.47;;
55537;SDS011;41383;51.418;7.286;2022-12-07T12:17:25;17.23;;;8.63;;
55537;SDS011;41383;51.418;7.286;2022-12-07T12:20:19;18.33;;;8.60;;
55537;SDS011;41383;51.418;7.286;2022-12-07T12:22:53;14.95;;;8.45;;
55537;SDS011;41383;51.418;7.286;2022-12-07T12:25:29;23.77;;;8.52;;
55537;SDS011;41383;51.418;7.286;2022-12-07T12:28:04;16.80;;;7.97;;
55537;SDS011;41383;51.418;7.286;2022-12-07T12:30:37;19.50;;;8.38;;
55537;SDS011;41383;51.418;7.286;2022-12-07T12:33:05;14.05;;;7.63;;
55537;SDS011;41383;51.418;7.286;2022-12-07T12:35:39;15.35;;;7.72;;
55537;SDS011;41383;51.418;7.286;2022-12-07T12:38:25;15.80;;;7.15;;
55537;SDS011;41383;51.418;7.286;2022-12-07T12:40:56;14.95;;;5.93;;
55537;SDS011;41383;51.418;7.286;2022-12-07T12:54:40;10.77;;;6.30;;
55537;SDS011;41383;51.418;7.286;2022-12-07T13:05:02;10.50;;;4.60;;
55537;SDS011;41383;51.418;7.286;2022-12-07T13:15:42;10.05;;;4.30;;
55537;SDS011;41383;51.418;7.286;2022-12-07T13:28:44;10.05;;;4.93;;
55537;SDS011;41383;51.418;7.286;2022-12-07T13:31:19;12.20;;;3.63;;
55537;SDS011;41383;51.418;7.286;2022-12-07T13:33:53;12.05;;;5.50;;
55537;SDS011;41383;51.418;7.286;2022-12-07T13:36:26;8.48;;;2.95;;
55537;SDS011;41383;51.418;7.286;2022-12-07T13:38:57;8.45;;;4.55;;
55537;SDS011;41383;51.418;7.286;2022-12-07T13:41:27;8.95;;;4.25;;
55537;SDS011;41383;51.418;7.286;2022-12-07T13:44:07;12.77;;;6.32;;
55537;SDS011;41383;51.418;7.286;2022-12-07T13:46:58;15.57;;;4.50;;
55537;SDS011;41383;51.418;7.286;2022-12-07T13:49:26;10.80;;;3.33;;
55537;SDS011;41383;51.418;7.286;2022-12-07T13:51:54;7.57;;;3.25;;
55537;SDS011;41383;51.418;7.286;2022-12-07T13:54:31;11.80;;;3.75;;
55537;SDS011;41383;51.418;7.286;2022-12-07T13:56:57;8.02;;;3.67;;
55537;SDS011;41383;51.418;7.286;2022-12-07T13:59:22;12.63;;;4.45;;
55537;SDS011;41383;51.418;7.286;2022-12-07T14:01:50;11.75;;;3.88;;
55537;SDS011;41383;51.418;7.286;2022-12-07T14:04:29;13.45;;;4.78;;
55537;SDS011;41383;51.418;7.286;2022-12-07T14:06:57;6.13;;;3.78;;
55537;SDS011;41383;51.418;7.286;2022-12-07T14:09:23;19.40;;;5.68;;
55537;SDS011;41383;51.418;7.286;2022-12-07T14:11:52;7.53;;;3.72;;
55537;SDS011;41383;51.418;7.286;2022-12-07T14:14:23;10.43;;;3.95;;
55537;SDS011;41383;51.418;7.286;2022-12-07T14:20:01;7.93;;;3.67;;
55537;SDS011;41383;51.418;7.286;2022-12-07T14:27:57;8.23;;;2.97;;
55537;SDS011;41383;51.418;7.286;2022-12-07T14:30:26;14.10;;;3.80;;
55537;SDS011;41383;51.418;7.286;2022-12-07T14:32:55;8.30;;;4.13;;
55537;SDS011;41383;51.418;7.286;2022-12-07T14:35:23;13.05;;;3.80;;
55537;SDS011;41383;51.418;7.286;2022-12-07T14:37:49;10.70;;;2.60;;
55537;SDS011;41383;51.418;7.286;2022-12-07T14:40:19;8.27;;;3.65;;
55537;SDS011;41383;51.418;7.286;2022-12-07T14:42:47;11.60;;;5.80;;
55537;SDS011;41383;51.418;7.286;2022-12-07T14:45:16;16.17;;;9.20;;
55537;SDS011;41383;51.418;7.286;2022-12-07T14:47:44;8.27;;;4.43;;
55537;SDS011;41383;51.418;7.286;2022-12-07T14:50:13;6.00;;;3.00;;
55537;SDS011;41383;51.418;7.286;2022-12-07T14:52:43;10.60;;;3.40;;
55537;SDS011;41383;51.418;7.286;2022-12-07T14:55:13;9.82;;;3.92;;
55537;SDS011;41383;51.418;7.286;2022-12-07T14:57:41;17.05;;;3.83;;
55537;SDS011;41383;51.418;7.286;2022-12-07T15:00:06;8.50;;;4.23;;
55537;SDS011;41383;51.418;7.286;2022-12-07T15:02:33;15.02;;;3.70;;
55537;SDS011;41383;51.418;7.286;2022-12-07T15:04:58;10.63;;;3.20;;
55537;SDS011;41383;51.418;7.286;2022-12-07T15:07:24;8.17;;;3.63;;
55537;SDS011;41383;51.418;7.286;2022-12-07T15:09:50;6.25;;;2.40;;
55537;SDS011;41383;51.418;7.286;2022-12-07T15:12:15;8.90;;;4.33;;
55537;SDS011;41383;51.418;7.286;2022-12-07T15:14:40;8.30;;;2.93;;
55537;SDS011;41383;51.418;7.286;2022-12-07T15:17:06;8.95;;;4.10;;
55537;SDS011;41383;51.418;7.286;2022-12-07T15:19:31;23.90;;;4.28;;
55537;SDS011;41383;51.418;7.286;2022-12-07T15:21:57;6.75;;;2.67;;
55537;SDS011;41383;51.418;7.286;2022-12-07T15:24:24;8.52;;;2.78;;
55537;SDS011;41383;51.418;7.286;2022-12-07T15:26:50;15.32;;;4.80;;
55537;SDS011;41383;51.418;7.286;2022-12-07T15:29:15;10.50;;;3.65;;
55537;SDS011;41383;51.418;7.286;2022-12-07T15:31:42;8.88;;;3.30;;
55537;SDS011;41383;51.418;7.286;2022-12-07T15:34:07;16.85;;;4.40;;
55537;SDS011;41383;51.418;7.286;2022-12-07T15:36:33;15.35;;;4.35;;
55537;SDS011;41383;51.418;7.286;2022-12-07T15:38:59;12.07;;;3.72;;
55537;SDS011;41383;51.418;7.286;2022-12-07T15:41:25;10.77;;;3.65;;
55537;SDS011;41383;51.418;7.286;2022-12-07T15:43:50;8.48;;;3.05;;
55537;SDS011;41383;51.418;7.286;2022-12-07T15:46:35;7.13;;;3.45;;
55537;SDS011;41383;51.418;7.286;2022-12-07T15:49:03;8.63;;;3.60;;
55537;SDS011;41383;51.418;7.286;2022-12-07T15:51:29;7.70;;;3.25;;
55537;SDS011;41383;51.418;7.286;2022-12-07T15:53:54;14.25;;;3.38;;
55537;SDS011;41383;51.418;7.286;2022-12-07T15:56:20;8.27;;;3.97;;
55537;SDS011;41383;51.418;7.286;2022-12-07T15:58:46;8.82;;;4.15;;
55537;SDS011;41383;51.418;7.286;2022-12-07T16:01:12;9.00;;;4.03;;
55537;SDS011;41383;51.418;7.286;2022-12-07T16:03:38;6.57;;;4.43;;
55537;SDS011;41383;51.418;7.286;2022-12-07T16:06:04;8.98;;;4.07;;
55537;SDS011;41383;51.418;7.286;2022-12-07T16:08:30;8.85;;;3.75;;
55537;SDS011;41383;51.418;7.286;2022-12-07T16:10:55;6.55;;;3.78;;
55537;SDS011;41383;51.418;7.286;2022-12-07T16:13:20;11.13;;;4.93;;
55537;SDS011;41383;51.418;7.286;2022-12-07T16:15:46;7.20;;;3.58;;
55537;SDS011;41383;51.418;7.286;2022-12-07T16:18:11;12.63;;;5.63;;
55537;SDS011;41383;51.418;7.286;2022-12-07T16:20:37;8.65;;;3.67;;
55537;SDS011;41383;51.418;7.286;2022-12-07T16:23:02;8.82;;;3.55;;
55537;SDS011;41383;51.418;7.286;2022-12-07T16:25:27;13.83;;;4.30;;
55537;SDS011;41383;51.418;7.286;2022-12-07T16:27:53;7.90;;;3.73;;
55537;SDS011;41383;51.418;7.286;2022-12-07T16:30:18;8.32;;;3.55;;
55537;SDS011;41383;51.418;7.286;2022-12-07T16:32:44;9.32;;;3.15;;
55537;SDS011;41383;51.418;7.286;2022-12-07T16:35:10;8.10;;;4.30;;
55537;SDS011;41383;51.418;7.286;2022-12-07T16:37:36;8.27;;;3.97;;
55537;SDS011;41383;51.418;7.286;2022-12-07T16:40:01;10.73;;;4.65;;
55537;SDS011;41383;51.418;7.286;2022-12-07T16:42:30;9.05;;;4.38;;
55537;SDS011;41383;51.418;7.286;2022-12-07T16:44:57;25.83;;;4.35;;
55537;SDS011;41383;51.418;7.286;2022-12-07T16:47:22;9.37;;;4.60;;
55537;SDS011;41383;51.418;7.286;2022-12-07T16:49:47;14.07;;;5.47;;
55537;SDS011;41383;51.418;7.286;2022-12-07T16:52:12;11.85;;;5.30;;
55537;SDS011;41383;51.418;7.286;2022-12-07T16:54:38;11.88;;;5.25;;
55537;SDS011;41383;51.418;7.286;2022-12-07T16:57:03;9.82;;;5.25;;
55537;SDS011;41383;51.418;7.286;2022-12-07T16:59:29;8.55;;;3.75;;
55537;SDS011;41383;51.418;7.286;2022-12-07T17:01:54;10.23;;;4.65;;
55537;SDS011;41383;51.418;7.286;2022-12-07T17:04:19;10.30;;;5.25;;